St. Paul, Alberta

Past 24 Hour Conditions

Date / Time
(MDT)
Conditions Temp
(°F)
Humidity
(%)
Dew Point
(°F)
Wind
(mph)
Pressure
(inches)
Vis
(mi)
Wind Chill
21 October 2014
3:00 N/A 42 75 34 W 3 N/A N/A *
2:00 N/A 46 65 35 SE 5 N/A N/A *
1:00 N/A 45 65 34 ESE 3 N/A N/A *
00:00 N/A 49 57 35 SE 4 N/A N/A *
20 October 2014
23:00 N/A 52 52 35 SE 6 N/A N/A *
22:00 N/A 49 58 35 SE 4 N/A N/A *
21:00 N/A 47 60 34 ESE 2 N/A N/A *
20:00 N/A 53 51 35 ESE 5 N/A N/A *
19:00 N/A 57 44 35 ESE 6 N/A N/A *
18:00 N/A 59 42 36 ESE 6 N/A N/A *
17:00 N/A 65 34 36 SE 7 N/A N/A *
16:00 N/A 67   31 36 SE 9 N/A N/A *
15:00 N/A 67   33 37 SE 7 N/A N/A *
14:00 N/A 66 33 36 ESE 5 N/A N/A *
13:00 N/A 59 45 38 S 5 N/A N/A *
12:00 N/A 55 52 37 SSW 4 N/A N/A *
11:00 N/A 51 63 38 SW 7 N/A N/A *
10:00 N/A 44 78 38 SW 7 N/A N/A *
9:00 N/A 36 95 35 SSW 3 N/A N/A *
8:00 N/A 31   95 30 WSW 5 N/A N/A 26
7:00 N/A 34 93 32 SE 4 N/A N/A *
6:00 N/A 36 95 35 SE 7 N/A N/A *
5:00 N/A 39 86 35 SSE 8 N/A N/A *
4:00 N/A 41 82 35 SE 5 N/A N/A *
3:00 N/A 43 77 36 ESE 8 N/A N/A *
N/A Not available
↑ Highest temperature
↓ Lowest temperature
* Value not significant.

If you require additional historical weather information, please visit Climate Data Online.

Date modified: